sensor_id;sensor_type;location;lat;lon;timestamp;temperature;humidity
546;DHT22;259;53.304;9.816;2022-12-29T00:00:49;10.00;72.90
546;DHT22;259;53.304;9.816;2022-12-29T00:03:15;10.00;72.90
546;DHT22;259;53.304;9.816;2022-12-29T00:05:41;10.00;72.80
546;DHT22;259;53.304;9.816;2022-12-29T00:08:06;10.00;72.80
546;DHT22;259;53.304;9.816;2022-12-29T00:10:33;10.00;73.20
546;DHT22;259;53.304;9.816;2022-12-29T00:12:58;10.00;73.00
546;DHT22;259;53.304;9.816;2022-12-29T00:15:42;10.00;72.80
546;DHT22;259;53.304;9.816;2022-12-29T00:18:08;10.00;72.90
546;DHT22;259;53.304;9.816;2022-12-29T00:20:36;10.00;73.00
546;DHT22;259;53.304;9.816;2022-12-29T00:23:20;10.00;73.10
546;DHT22;259;53.304;9.816;2022-12-29T00:26:13;10.00;73.00
546;DHT22;259;53.304;9.816;2022-12-29T00:28:58;9.90;74.30
546;DHT22;259;53.304;9.816;2022-12-29T00:31:42;9.90;74.40
546;DHT22;259;53.304;9.816;2022-12-29T00:34:25;9.90;74.60
546;DHT22;259;53.304;9.816;2022-12-29T00:37:09;9.90;74.50
546;DHT22;259;53.304;9.816;2022-12-29T00:39:35;9.90;74.80
546;DHT22;259;53.304;9.816;2022-12-29T00:42:19;9.90;74.80
546;DHT22;259;53.304;9.816;2022-12-29T00:45:04;9.90;74.70
546;DHT22;259;53.304;9.816;2022-12-29T00:47:30;9.90;74.80
546;DHT22;259;53.304;9.816;2022-12-29T00:49:56;9.90;74.90
546;DHT22;259;53.304;9.816;2022-12-29T00:52:21;9.90;74.80
546;DHT22;259;53.304;9.816;2022-12-29T00:54:47;9.90;75.00
546;DHT22;259;53.304;9.816;2022-12-29T00:57:13;9.90;75.00
546;DHT22;259;53.304;9.816;2022-12-29T00:59:40;9.90;75.10
546;DHT22;259;53.304;9.816;2022-12-29T01:02:07;9.90;74.90
546;DHT22;259;53.304;9.816;2022-12-29T01:04:33;9.90;75.10
546;DHT22;259;53.304;9.816;2022-12-29T01:06:59;9.90;75.10
546;DHT22;259;53.304;9.816;2022-12-29T01:09:25;9.90;74.70
546;DHT22;259;53.304;9.816;2022-12-29T01:12:10;9.90;74.90
546;DHT22;259;53.304;9.816;2022-12-29T01:14:36;9.90;75.20
546;DHT22;259;53.304;9.816;2022-12-29T01:17:02;9.90;75.10
546;DHT22;259;53.304;9.816;2022-12-29T01:19:28;9.90;74.80
546;DHT22;259;53.304;9.816;2022-12-29T01:21:54;9.90;74.70
546;DHT22;259;53.304;9.816;2022-12-29T01:24:20;9.90;75.00
546;DHT22;259;53.304;9.816;2022-12-29T01:26:47;9.90;74.80
546;DHT22;259;53.304;9.816;2022-12-29T01:29:13;9.90;74.70
546;DHT22;259;53.304;9.816;2022-12-29T01:31:39;9.90;74.60
546;DHT22;259;53.304;9.816;2022-12-29T01:34:05;9.90;74.80
546;DHT22;259;53.304;9.816;2022-12-29T01:36:31;9.90;75.10
546;DHT22;259;53.304;9.816;2022-12-29T01:38:57;9.90;74.70
546;DHT22;259;53.304;9.816;2022-12-29T01:41:23;9.90;75.00
546;DHT22;259;53.304;9.816;2022-12-29T01:43:51;9.90;74.60
546;DHT22;259;53.304;9.816;2022-12-29T01:46:35;9.90;75.10
546;DHT22;259;53.304;9.816;2022-12-29T01:49:16;9.90;74.80
546;DHT22;259;53.304;9.816;2022-12-29T01:51:52;9.90;75.00
546;DHT22;259;53.304;9.816;2022-12-29T01:54:39;9.90;74.80
546;DHT22;259;53.304;9.816;2022-12-29T01:57:10;9.90;74.70
546;DHT22;259;53.304;9.816;2022-12-29T01:59:48;9.90;74.70
546;DHT22;259;53.304;9.816;2022-12-29T02:02:17;9.90;74.50
546;DHT22;259;53.304;9.816;2022-12-29T02:04:43;9.90;75.00
546;DHT22;259;53.304;9.816;2022-12-29T02:07:19;9.90;75.00
546;DHT22;259;53.304;9.816;2022-12-29T02:09:51;9.90;75.10
546;DHT22;259;53.304;9.816;2022-12-29T02:12:19;9.90;74.70
546;DHT22;259;53.304;9.816;2022-12-29T02:14:47;9.90;74.70
546;DHT22;259;53.304;9.816;2022-12-29T02:39:15;9.90;75.20
546;DHT22;259;53.304;9.816;2022-12-29T02:45:09;9.90;74.80
546;DHT22;259;53.304;9.816;2022-12-29T02:53:07;9.90;74.80
546;DHT22;259;53.304;9.816;2022-12-29T02:55:36;9.90;74.90
546;DHT22;259;53.304;9.816;2022-12-29T02:58:20;9.90;74.90
546;DHT22;259;53.304;9.816;2022-12-29T03:01:21;9.90;74.90
546;DHT22;259;53.304;9.816;2022-12-29T03:07:17;9.90;74.80
546;DHT22;259;53.304;9.816;2022-12-29T03:16:12;9.90;74.90
546;DHT22;259;53.304;9.816;2022-12-29T03:18:49;9.90;74.70
546;DHT22;259;53.304;9.816;2022-12-29T03:21:42;9.90;74.50
546;DHT22;259;53.304;9.816;2022-12-29T03:24:31;9.90;74.60
546;DHT22;259;53.304;9.816;2022-12-29T03:27:03;9.90;74.60
546;DHT22;259;53.304;9.816;2022-12-29T03:29:35;9.90;74.60
546;DHT22;259;53.304;9.816;2022-12-29T03:32:04;9.90;74.50
546;DHT22;259;53.304;9.816;2022-12-29T03:34:33;9.90;74.50
546;DHT22;259;53.304;9.816;2022-12-29T03:37:10;9.90;74.40
546;DHT22;259;53.304;9.816;2022-12-29T03:39:38;9.90;74.50
546;DHT22;259;53.304;9.816;2022-12-29T03:42:13;9.90;74.60
546;DHT22;259;53.304;9.816;2022-12-29T03:44:42;9.90;74.50
546;DHT22;259;53.304;9.816;2022-12-29T03:47:11;9.90;74.50
546;DHT22;259;53.304;9.816;2022-12-29T03:49:37;9.90;74.50
546;DHT22;259;53.304;9.816;2022-12-29T03:52:04;9.90;74.50
546;DHT22;259;53.304;9.816;2022-12-29T03:54:30;9.90;74.40
546;DHT22;259;53.304;9.816;2022-12-29T03:56:56;9.90;74.40
546;DHT22;259;53.304;9.816;2022-12-29T03:59:22;9.90;74.40
546;DHT22;259;53.304;9.816;2022-12-29T04:01:48;9.90;74.50
546;DHT22;259;53.304;9.816;2022-12-29T04:04:14;9.90;74.50
546;DHT22;259;53.304;9.816;2022-12-29T04:06:39;9.90;74.50
546;DHT22;259;53.304;9.816;2022-12-29T04:09:05;9.90;74.50
546;DHT22;259;53.304;9.816;2022-12-29T04:11:31;9.90;74.60
546;DHT22;259;53.304;9.816;2022-12-29T04:13:57;9.90;74.50
546;DHT22;259;53.304;9.816;2022-12-29T04:16:23;9.90;74.70
546;DHT22;259;53.304;9.816;2022-12-29T04:18:48;9.90;74.40
546;DHT22;259;53.304;9.816;2022-12-29T04:21:14;9.90;74.40
546;DHT22;259;53.304;9.816;2022-12-29T04:23:40;9.90;74.60
546;DHT22;259;53.304;9.816;2022-12-29T04:26:07;9.90;74.50
546;DHT22;259;53.304;9.816;2022-12-29T04:28:33;9.90;74.60
546;DHT22;259;53.304;9.816;2022-12-29T04:30:59;9.90;74.60
546;DHT22;259;53.304;9.816;2022-12-29T04:33:25;9.90;74.60
546;DHT22;259;53.304;9.816;2022-12-29T04:35:51;9.90;74.60
546;DHT22;259;53.304;9.816;2022-12-29T04:38:19;9.90;74.60
546;DHT22;259;53.304;9.816;2022-12-29T04:40:46;9.90;74.40
546;DHT22;259;53.304;9.816;2022-12-29T04:43:13;9.90;74.50
546;DHT22;259;53.304;9.816;2022-12-29T04:45:43;9.90;75.40
546;DHT22;259;53.304;9.816;2022-12-29T04:48:10;9.90;74.60
546;DHT22;259;53.304;9.816;2022-12-29T04:50:35;9.90;74.60
546;DHT22;259;53.304;9.816;2022-12-29T04:53:01;9.90;75.30
546;DHT22;259;53.304;9.816;2022-12-29T04:55:27;9.90;75.40
546;DHT22;259;53.304;9.816;2022-12-29T04:57:53;9.90;75.40
546;DHT22;259;53.304;9.816;2022-12-29T05:00:19;9.90;75.70
546;DHT22;259;53.304;9.816;2022-12-29T05:02:45;9.90;75.80
546;DHT22;259;53.304;9.816;2022-12-29T05:05:11;9.90;75.80
546;DHT22;259;53.304;9.816;2022-12-29T05:07:36;9.90;76.50
546;DHT22;259;53.304;9.816;2022-12-29T05:10:02;9.90;75.80
546;DHT22;259;53.304;9.816;2022-12-29T05:12:33;9.90;75.90
546;DHT22;259;53.304;9.816;2022-12-29T05:14:59;10.00;74.60
546;DHT22;259;53.304;9.816;2022-12-29T05:17:25;10.00;74.10
546;DHT22;259;53.304;9.816;2022-12-29T05:19:51;10.00;73.60
546;DHT22;259;53.304;9.816;2022-12-29T05:22:17;10.00;73.30
546;DHT22;259;53.304;9.816;2022-12-29T05:24:43;10.00;73.30
546;DHT22;259;53.304;9.816;2022-12-29T05:27:09;10.00;73.30
546;DHT22;259;53.304;9.816;2022-12-29T05:29:34;10.00;73.30
546;DHT22;259;53.304;9.816;2022-12-29T05:32:00;10.00;73.20
546;DHT22;259;53.304;9.816;2022-12-29T05:34:26;10.00;73.20
546;DHT22;259;53.304;9.816;2022-12-29T05:36:52;10.00;73.30
546;DHT22;259;53.304;9.816;2022-12-29T05:39:17;10.00;73.40
546;DHT22;259;53.304;9.816;2022-12-29T05:41:43;10.00;73.40
546;DHT22;259;53.304;9.816;2022-12-29T05:44:10;10.00;73.40
546;DHT22;259;53.304;9.816;2022-12-29T05:46:36;10.00;73.50
546;DHT22;259;53.304;9.816;2022-12-29T05:49:02;10.00;73.40
546;DHT22;259;53.304;9.816;2022-12-29T05:51:28;10.00;73.50
546;DHT22;259;53.304;9.816;2022-12-29T05:53:53;10.00;73.50
546;DHT22;259;53.304;9.816;2022-12-29T05:56:19;10.00;73.50
546;DHT22;259;53.304;9.816;2022-12-29T05:58:45;10.00;73.50
546;DHT22;259;53.304;9.816;2022-12-29T06:01:11;10.00;73.70
546;DHT22;259;53.304;9.816;2022-12-29T06:03:36;10.00;73.70
546;DHT22;259;53.304;9.816;2022-12-29T06:06:02;10.00;73.70
546;DHT22;259;53.304;9.816;2022-12-29T06:08:28;10.00;73.70
546;DHT22;259;53.304;9.816;2022-12-29T06:10:54;10.00;73.80
546;DHT22;259;53.304;9.816;2022-12-29T06:13:19;10.00;73.70
546;DHT22;259;53.304;9.816;2022-12-29T06:15:45;10.00;73.90
546;DHT22;259;53.304;9.816;2022-12-29T06:18:13;10.00;73.90
546;DHT22;259;53.304;9.816;2022-12-29T06:20:39;10.00;73.90
546;DHT22;259;53.304;9.816;2022-12-29T06:23:05;10.00;73.90
546;DHT22;259;53.304;9.816;2022-12-29T06:25:30;10.00;73.90
546;DHT22;259;53.304;9.816;2022-12-29T06:27:59;10.00;73.90
546;DHT22;259;53.304;9.816;2022-12-29T06:30:25;10.00;73.90
546;DHT22;259;53.304;9.816;2022-12-29T06:32:51;10.00;73.80
546;DHT22;259;53.304;9.816;2022-12-29T06:35:17;10.00;73.70
546;DHT22;259;53.304;9.816;2022-12-29T06:37:43;10.00;73.80
546;DHT22;259;53.304;9.816;2022-12-29T06:40:09;10.00;73.70
546;DHT22;259;53.304;9.816;2022-12-29T06:42:37;10.00;73.60
546;DHT22;259;53.304;9.816;2022-12-29T06:45:03;10.00;73.70
546;DHT22;259;53.304;9.816;2022-12-29T06:47:29;10.00;74.40
546;DHT22;259;53.304;9.816;2022-12-29T06:49:54;10.00;73.70
546;DHT22;259;53.304;9.816;2022-12-29T06:52:20;10.00;73.70
546;DHT22;259;53.304;9.816;2022-12-29T06:54:46;10.00;73.60
546;DHT22;259;53.304;9.816;2022-12-29T06:57:11;10.00;73.70
546;DHT22;259;53.304;9.816;2022-12-29T06:59:37;10.00;73.70
546;DHT22;259;53.304;9.816;2022-12-29T07:02:03;10.00;73.70
546;DHT22;259;53.304;9.816;2022-12-29T07:04:29;10.00;73.70
546;DHT22;259;53.304;9.816;2022-12-29T07:06:55;10.00;73.70
546;DHT22;259;53.304;9.816;2022-12-29T07:09:21;10.00;73.80
546;DHT22;259;53.304;9.816;2022-12-29T07:11:46;10.00;73.90
546;DHT22;259;53.304;9.816;2022-12-29T07:14:12;10.00;73.90
546;DHT22;259;53.304;9.816;2022-12-29T07:16:38;10.00;73.90
546;DHT22;259;53.304;9.816;2022-12-29T07:19:04;10.00;73.90
546;DHT22;259;53.304;9.816;2022-12-29T07:21:30;10.00;74.00
546;DHT22;259;53.304;9.816;2022-12-29T07:23:55;10.00;74.00
546;DHT22;259;53.304;9.816;2022-12-29T07:26:21;10.00;74.00
546;DHT22;259;53.304;9.816;2022-12-29T07:28:47;10.00;74.00
546;DHT22;259;53.304;9.816;2022-12-29T07:31:18;10.00;74.10
546;DHT22;259;53.304;9.816;2022-12-29T07:33:45;10.00;74.00
546;DHT22;259;53.304;9.816;2022-12-29T07:36:12;10.00;74.00
546;DHT22;259;53.304;9.816;2022-12-29T07:38:38;10.00;73.90
546;DHT22;259;53.304;9.816;2022-12-29T07:41:04;10.00;74.00
546;DHT22;259;53.304;9.816;2022-12-29T07:43:29;10.10;74.20
546;DHT22;259;53.304;9.816;2022-12-29T07:45:55;10.00;74.10
546;DHT22;259;53.304;9.816;2022-12-29T07:48:21;10.00;75.00
546;DHT22;259;53.304;9.816;2022-12-29T07:50:47;10.10;75.50
546;DHT22;259;53.304;9.816;2022-12-29T07:53:13;10.10;76.90
546;DHT22;259;53.304;9.816;2022-12-29T07:55:39;10.10;77.30
546;DHT22;259;53.304;9.816;2022-12-29T07:58:05;10.20;80.40
546;DHT22;259;53.304;9.816;2022-12-29T08:00:30;10.30;81.30
546;DHT22;259;53.304;9.816;2022-12-29T08:02:56;10.30;81.90
546;DHT22;259;53.304;9.816;2022-12-29T08:05:22;10.40;81.20
546;DHT22;259;53.304;9.816;2022-12-29T08:07:48;10.60;80.60
546;DHT22;259;53.304;9.816;2022-12-29T08:10:14;10.90;79.50
546;DHT22;259;53.304;9.816;2022-12-29T08:12:41;11.50;77.80
546;DHT22;259;53.304;9.816;2022-12-29T08:15:09;12.20;75.60
546;DHT22;259;53.304;9.816;2022-12-29T08:17:36;13.10;73.10
546;DHT22;259;53.304;9.816;2022-12-29T08:20:02;14.00;70.50
546;DHT22;259;53.304;9.816;2022-12-29T08:22:29;14.80;68.10
546;DHT22;259;53.304;9.816;2022-12-29T08:24:54;15.80;65.60
546;DHT22;259;53.304;9.816;2022-12-29T08:27:20;16.50;63.70
546;DHT22;259;53.304;9.816;2022-12-29T08:29:46;17.10;62.20
546;DHT22;259;53.304;9.816;2022-12-29T08:32:12;17.70;60.90
546;DHT22;259;53.304;9.816;2022-12-29T08:34:37;18.30;59.90
546;DHT22;259;53.304;9.816;2022-12-29T08:37:03;18.90;59.40
546;DHT22;259;53.304;9.816;2022-12-29T08:39:29;19.40;59.40
546;DHT22;259;53.304;9.816;2022-12-29T08:41:55;19.70;58.90
546;DHT22;259;53.304;9.816;2022-12-29T08:44:21;20.20;58.00
546;DHT22;259;53.304;9.816;2022-12-29T08:46:47;20.70;57.50
546;DHT22;259;53.304;9.816;2022-12-29T08:49:12;21.00;57.10
546;DHT22;259;53.304;9.816;2022-12-29T08:51:38;21.30;56.80
546;DHT22;259;53.304;9.816;2022-12-29T08:54:04;21.70;56.40
546;DHT22;259;53.304;9.816;2022-12-29T08:56:30;22.00;56.00
546;DHT22;259;53.304;9.816;2022-12-29T08:58:56;22.30;55.70
546;DHT22;259;53.304;9.816;2022-12-29T09:01:21;22.60;55.30
546;DHT22;259;53.304;9.816;2022-12-29T09:03:47;23.00;55.00
546;DHT22;259;53.304;9.816;2022-12-29T09:06:15;23.30;54.70
546;DHT22;259;53.304;9.816;2022-12-29T09:08:42;23.50;54.50
546;DHT22;259;53.304;9.816;2022-12-29T09:11:09;23.80;54.50
546;DHT22;259;53.304;9.816;2022-12-29T09:13:39;24.10;54.30
546;DHT22;259;53.304;9.816;2022-12-29T09:16:06;24.40;54.10
546;DHT22;259;53.304;9.816;2022-12-29T09:18:31;24.50;54.10
546;DHT22;259;53.304;9.816;2022-12-29T09:21:01;24.60;54.60
546;DHT22;259;53.304;9.816;2022-12-29T09:23:29;24.60;55.00
546;DHT22;259;53.304;9.816;2022-12-29T09:25:55;24.70;55.10
546;DHT22;259;53.304;9.816;2022-12-29T09:28:21;24.70;55.30
546;DHT22;259;53.304;9.816;2022-12-29T09:30:47;24.70;55.10
546;DHT22;259;53.304;9.816;2022-12-29T09:33:13;24.60;55.40
546;DHT22;259;53.304;9.816;2022-12-29T09:35:43;24.50;55.70
546;DHT22;259;53.304;9.816;2022-12-29T09:38:11;24.40;56.20
546;DHT22;259;53.304;9.816;2022-12-29T09:40:37;24.20;56.10
546;DHT22;259;53.304;9.816;2022-12-29T09:52:03;23.50;57.20
546;DHT22;259;53.304;9.816;2022-12-29T09:54:41;23.40;57.50
546;DHT22;259;53.304;9.816;2022-12-29T09:57:24;23.30;57.70
546;DHT22;259;53.304;9.816;2022-12-29T10:00:14;23.10;57.80
546;DHT22;259;53.304;9.816;2022-12-29T10:03:19;22.90;58.10
546;DHT22;259;53.304;9.816;2022-12-29T10:06:02;22.80;58.30
546;DHT22;259;53.304;9.816;2022-12-29T10:08:41;22.60;58.40
546;DHT22;259;53.304;9.816;2022-12-29T10:14:37;22.40;58.80
546;DHT22;259;53.304;9.816;2022-12-29T10:17:27;22.30;59.00
546;DHT22;259;53.304;9.816;2022-12-29T10:20:06;22.20;59.10
546;DHT22;259;53.304;9.816;2022-12-29T10:23:43;22.10;59.20
546;DHT22;259;53.304;9.816;2022-12-29T10:25:54;22.00;59.30
546;DHT22;259;53.304;9.816;2022-12-29T10:31:24;21.80;59.60
546;DHT22;259;53.304;9.816;2022-12-29T10:34:00;21.70;59.70
546;DHT22;259;53.304;9.816;2022-12-29T10:36:34;21.60;60.00
546;DHT22;259;53.304;9.816;2022-12-29T10:39:40;21.50;60.20
546;DHT22;259;53.304;9.816;2022-12-29T10:42:36;21.40;60.60
546;DHT22;259;53.304;9.816;2022-12-29T10:45:10;21.30;60.80
546;DHT22;259;53.304;9.816;2022-12-29T10:47:47;21.20;61.00
546;DHT22;259;53.304;9.816;2022-12-29T10:50:29;21.10;61.20
546;DHT22;259;53.304;9.816;2022-12-29T10:52:57;21.00;61.60
546;DHT22;259;53.304;9.816;2022-12-29T10:55:32;20.90;61.60
546;DHT22;259;53.304;9.816;2022-12-29T10:58:04;20.70;62.40
546;DHT22;259;53.304;9.816;2022-12-29T11:00:32;20.60;62.80
546;DHT22;259;53.304;9.816;2022-12-29T11:06:31;20.50;63.50
546;DHT22;259;53.304;9.816;2022-12-29T11:09:11;20.40;64.10
546;DHT22;259;53.304;9.816;2022-12-29T11:11:40;20.30;64.30
546;DHT22;259;53.304;9.816;2022-12-29T11:14:17;20.20;64.40
546;DHT22;259;53.304;9.816;2022-12-29T11:16:59;20.00;64.90
546;DHT22;259;53.304;9.816;2022-12-29T11:19:32;20.00;65.20
546;DHT22;259;53.304;9.816;2022-12-29T11:22:29;19.90;65.90
546;DHT22;259;53.304;9.816;2022-12-29T11:25:06;19.80;65.30
546;DHT22;259;53.304;9.816;2022-12-29T11:27:35;19.70;65.00
546;DHT22;259;53.304;9.816;2022-12-29T11:30:01;19.70;64.90
546;DHT22;259;53.304;9.816;2022-12-29T11:32:29;19.60;64.80
546;DHT22;259;53.304;9.816;2022-12-29T11:34:58;19.50;64.40
546;DHT22;259;53.304;9.816;2022-12-29T11:37:30;19.40;64.20
546;DHT22;259;53.304;9.816;2022-12-29T11:40:16;19.40;64.30
546;DHT22;259;53.304;9.816;2022-12-29T11:43:00;19.30;64.40
546;DHT22;259;53.304;9.816;2022-12-29T11:45:31;19.20;64.40
546;DHT22;259;53.304;9.816;2022-12-29T11:48:06;19.20;64.60
546;DHT22;259;53.304;9.816;2022-12-29T11:50:37;19.00;64.40
546;DHT22;259;53.304;9.816;2022-12-29T11:55:54;18.90;64.70
546;DHT22;259;53.304;9.816;2022-12-29T11:58:31;18.90;64.90
546;DHT22;259;53.304;9.816;2022-12-29T12:01:34;18.80;65.00
546;DHT22;259;53.304;9.816;2022-12-29T12:06:41;18.60;65.20
546;DHT22;259;53.304;9.816;2022-12-29T12:09:46;18.50;65.30
546;DHT22;259;53.304;9.816;2022-12-29T12:12:38;18.50;65.50
546;DHT22;259;53.304;9.816;2022-12-29T12:15:17;18.40;65.60
546;DHT22;259;53.304;9.816;2022-12-29T12:20:54;18.20;65.80
546;DHT22;259;53.304;9.816;2022-12-29T12:26:15;18.10;66.10
546;DHT22;259;53.304;9.816;2022-12-29T12:29:01;18.00;66.30
546;DHT22;259;53.304;9.816;2022-12-29T12:31:55;17.90;66.30
546;DHT22;259;53.304;9.816;2022-12-29T12:34:35;17.90;66.60
546;DHT22;259;53.304;9.816;2022-12-29T13:00:10;17.20;67.70
546;DHT22;259;53.304;9.816;2022-12-29T13:05:33;17.10;68.00
546;DHT22;259;53.304;9.816;2022-12-29T13:10:59;17.00;68.20
546;DHT22;259;53.304;9.816;2022-12-29T13:14:15;17.00;68.30
546;DHT22;259;53.304;9.816;2022-12-29T13:17:56;16.90;68.40
546;DHT22;259;53.304;9.816;2022-12-29T13:26:35;16.70;68.80
546;DHT22;259;53.304;9.816;2022-12-29T13:29:39;16.70;68.80
546;DHT22;259;53.304;9.816;2022-12-29T13:32:25;16.60;68.90
546;DHT22;259;53.304;9.816;2022-12-29T13:35:11;16.60;68.90
546;DHT22;259;53.304;9.816;2022-12-29T13:40:59;16.50;69.30
546;DHT22;259;53.304;9.816;2022-12-29T13:43:29;16.40;69.30
546;DHT22;259;53.304;9.816;2022-12-29T13:46:09;16.40;69.50
546;DHT22;259;53.304;9.816;2022-12-29T13:48:50;16.40;69.50
546;DHT22;259;53.304;9.816;2022-12-29T13:51:17;16.30;69.60
546;DHT22;259;53.304;9.816;2022-12-29T13:54:09;16.30;69.60
546;DHT22;259;53.304;9.816;2022-12-29T13:56:45;16.30;69.80
546;DHT22;259;53.304;9.816;2022-12-29T14:08:03;16.10;70.20
546;DHT22;259;53.304;9.816;2022-12-29T14:10:38;16.10;70.30
546;DHT22;259;53.304;9.816;2022-12-29T14:13:22;16.10;70.40
546;DHT22;259;53.304;9.816;2022-12-29T14:15:56;16.00;70.50
546;DHT22;259;53.304;9.816;2022-12-29T14:18:28;16.00;70.40
546;DHT22;259;53.304;9.816;2022-12-29T14:20:57;16.00;70.40
546;DHT22;259;53.304;9.816;2022-12-29T14:23:34;15.90;70.60
546;DHT22;259;53.304;9.816;2022-12-29T14:28:39;15.90;70.60
546;DHT22;259;53.304;9.816;2022-12-29T14:37:02;15.80;70.80
546;DHT22;259;53.304;9.816;2022-12-29T14:42:12;15.70;70.80
546;DHT22;259;53.304;9.816;2022-12-29T14:44:55;15.70;70.90
546;DHT22;259;53.304;9.816;2022-12-29T14:47:27;15.70;70.90
546;DHT22;259;53.304;9.816;2022-12-29T14:52:31;15.60;71.00
546;DHT22;259;53.304;9.816;2022-12-29T14:54:59;15.60;71.10
546;DHT22;259;53.304;9.816;2022-12-29T15:00:40;15.50;71.10
546;DHT22;259;53.304;9.816;2022-12-29T15:03:30;15.50;71.30
546;DHT22;259;53.304;9.816;2022-12-29T15:06:04;15.50;71.40
546;DHT22;259;53.304;9.816;2022-12-29T15:08:37;15.40;71.40
546;DHT22;259;53.304;9.816;2022-12-29T15:11:12;15.40;71.40
546;DHT22;259;53.304;9.816;2022-12-29T15:13:42;15.40;71.50
546;DHT22;259;53.304;9.816;2022-12-29T15:16:31;15.30;71.60
546;DHT22;259;53.304;9.816;2022-12-29T15:18:58;15.30;71.60
546;DHT22;259;53.304;9.816;2022-12-29T15:21:33;15.30;71.60
546;DHT22;259;53.304;9.816;2022-12-29T15:24:01;15.30;71.70
546;DHT22;259;53.304;9.816;2022-12-29T15:26:39;15.20;71.60
546;DHT22;259;53.304;9.816;2022-12-29T15:29:39;15.30;71.70
546;DHT22;259;53.304;9.816;2022-12-29T15:34:41;15.20;71.90
546;DHT22;259;53.304;9.816;2022-12-29T15:37:08;15.20;71.80
546;DHT22;259;53.304;9.816;2022-12-29T15:39:34;15.20;71.90
546;DHT22;259;53.304;9.816;2022-12-29T15:42:33;15.10;72.00
546;DHT22;259;53.304;9.816;2022-12-29T15:45:07;15.10;72.40
546;DHT22;259;53.304;9.816;2022-12-29T15:47:35;15.10;73.90
546;DHT22;259;53.304;9.816;2022-12-29T15:50:11;15.10;73.90
546;DHT22;259;53.304;9.816;2022-12-29T15:52:41;15.10;74.20
546;DHT22;259;53.304;9.816;2022-12-29T15:55:18;15.10;74.00
546;DHT22;259;53.304;9.816;2022-12-29T15:57:59;15.10;74.20
546;DHT22;259;53.304;9.816;2022-12-29T16:00:34;15.10;74.50
546;DHT22;259;53.304;9.816;2022-12-29T16:03:05;15.10;74.50
546;DHT22;259;53.304;9.816;2022-12-29T16:05:36;15.10;74.30
546;DHT22;259;53.304;9.816;2022-12-29T16:08:18;15.00;74.00
546;DHT22;259;53.304;9.816;2022-12-29T16:10:46;15.00;73.50
546;DHT22;259;53.304;9.816;2022-12-29T16:15:40;15.00;73.10
546;DHT22;259;53.304;9.816;2022-12-29T16:18:22;14.90;72.90
546;DHT22;259;53.304;9.816;2022-12-29T16:20:50;15.00;73.00
546;DHT22;259;53.304;9.816;2022-12-29T16:23:24;14.90;72.90
546;DHT22;259;53.304;9.816;2022-12-29T16:25:52;14.90;72.90
546;DHT22;259;53.304;9.816;2022-12-29T16:28:27;14.90;72.90
546;DHT22;259;53.304;9.816;2022-12-29T16:31:15;14.90;73.00
546;DHT22;259;53.304;9.816;2022-12-29T16:33:49;14.90;72.90
546;DHT22;259;53.304;9.816;2022-12-29T16:39:10;14.90;73.80
546;DHT22;259;53.304;9.816;2022-12-29T16:41:44;14.90;74.20
546;DHT22;259;53.304;9.816;2022-12-29T16:44:17;15.00;74.50
546;DHT22;259;53.304;9.816;2022-12-29T16:47:16;15.10;74.20
546;DHT22;259;53.304;9.816;2022-12-29T16:49:48;15.10;75.60
546;DHT22;259;53.304;9.816;2022-12-29T16:52:28;15.20;74.60
546;DHT22;259;53.304;9.816;2022-12-29T16:54:58;15.20;74.50
546;DHT22;259;53.304;9.816;2022-12-29T16:57:31;15.20;74.30
546;DHT22;259;53.304;9.816;2022-12-29T17:00:17;15.30;74.30
546;DHT22;259;53.304;9.816;2022-12-29T17:02:44;15.30;74.50
546;DHT22;259;53.304;9.816;2022-12-29T17:05:14;15.30;74.30
546;DHT22;259;53.304;9.816;2022-12-29T17:07:41;15.30;74.10
546;DHT22;259;53.304;9.816;2022-12-29T17:10:07;15.30;75.00
546;DHT22;259;53.304;9.816;2022-12-29T17:12:34;15.40;74.90
546;DHT22;259;53.304;9.816;2022-12-29T17:17:41;15.40;76.40
546;DHT22;259;53.304;9.816;2022-12-29T17:20:23;15.40;76.00
546;DHT22;259;53.304;9.816;2022-12-29T17:22:51;15.40;76.00
546;DHT22;259;53.304;9.816;2022-12-29T17:25:23;15.60;75.90
546;DHT22;259;53.304;9.816;2022-12-29T17:28:00;15.70;75.60
546;DHT22;259;53.304;9.816;2022-12-29T17:30:29;15.60;74.90
546;DHT22;259;53.304;9.816;2022-12-29T17:33:03;15.70;75.10
546;DHT22;259;53.304;9.816;2022-12-29T17:35:30;15.70;74.80
546;DHT22;259;53.304;9.816;2022-12-29T17:37:56;15.80;74.70
546;DHT22;259;53.304;9.816;2022-12-29T17:40:26;15.80;74.50
546;DHT22;259;53.304;9.816;2022-12-29T17:42:55;15.70;75.10
546;DHT22;259;53.304;9.816;2022-12-29T17:45:27;15.60;75.10
546;DHT22;259;53.304;9.816;2022-12-29T17:47:55;15.50;75.00
546;DHT22;259;53.304;9.816;2022-12-29T17:50:26;15.40;74.80
546;DHT22;259;53.304;9.816;2022-12-29T17:53:02;15.40;74.80
546;DHT22;259;53.304;9.816;2022-12-29T17:55:30;15.30;74.80
546;DHT22;259;53.304;9.816;2022-12-29T17:57:56;15.30;74.80
546;DHT22;259;53.304;9.816;2022-12-29T18:00:29;15.20;74.70
546;DHT22;259;53.304;9.816;2022-12-29T18:02:56;15.20;74.70
546;DHT22;259;53.304;9.816;2022-12-29T18:05:26;15.20;74.80
546;DHT22;259;53.304;9.816;2022-12-29T18:07:55;15.20;74.80
546;DHT22;259;53.304;9.816;2022-12-29T18:10:25;15.10;74.70
546;DHT22;259;53.304;9.816;2022-12-29T18:12:53;15.10;74.60
546;DHT22;259;53.304;9.816;2022-12-29T18:15:26;15.10;74.60
546;DHT22;259;53.304;9.816;2022-12-29T18:18:08;15.00;74.50
546;DHT22;259;53.304;9.816;2022-12-29T18:20:38;15.00;74.50
546;DHT22;259;53.304;9.816;2022-12-29T18:23:05;15.00;74.40
546;DHT22;259;53.304;9.816;2022-12-29T18:26:03;14.90;74.40
546;DHT22;259;53.304;9.816;2022-12-29T18:28:30;14.90;74.30
546;DHT22;259;53.304;9.816;2022-12-29T18:30:58;14.90;74.30
546;DHT22;259;53.304;9.816;2022-12-29T18:33:26;14.90;74.30
546;DHT22;259;53.304;9.816;2022-12-29T18:35:58;14.90;74.30
546;DHT22;259;53.304;9.816;2022-12-29T18:38:25;14.80;74.10
546;DHT22;259;53.304;9.816;2022-12-29T18:40:52;14.80;74.10
546;DHT22;259;53.304;9.816;2022-12-29T18:43:19;14.80;74.10
546;DHT22;259;53.304;9.816;2022-12-29T18:45:45;14.70;74.10
546;DHT22;259;53.304;9.816;2022-12-29T18:48:13;14.70;74.20
546;DHT22;259;53.304;9.816;2022-12-29T18:50:39;14.70;74.00
546;DHT22;259;53.304;9.816;2022-12-29T18:53:05;14.70;74.20
546;DHT22;259;53.304;9.816;2022-12-29T18:55:31;14.70;74.30
546;DHT22;259;53.304;9.816;2022-12-29T18:57:58;14.60;74.20
546;DHT22;259;53.304;9.816;2022-12-29T19:00:24;14.60;74.30
546;DHT22;259;53.304;9.816;2022-12-29T19:02:50;14.60;74.50
546;DHT22;259;53.304;9.816;2022-12-29T19:05:26;14.60;74.50
546;DHT22;259;53.304;9.816;2022-12-29T19:07:54;14.50;74.40
546;DHT22;259;53.304;9.816;2022-12-29T19:10:22;14.50;74.50
546;DHT22;259;53.304;9.816;2022-12-29T19:12:49;14.50;74.50
546;DHT22;259;53.304;9.816;2022-12-29T19:15:26;14.50;74.60
546;DHT22;259;53.304;9.816;2022-12-29T19:17:56;14.50;74.70
546;DHT22;259;53.304;9.816;2022-12-29T19:23:06;14.40;74.70
546;DHT22;259;53.304;9.816;2022-12-29T19:25:34;14.40;74.70
546;DHT22;259;53.304;9.816;2022-12-29T19:28:00;14.40;74.80
546;DHT22;259;53.304;9.816;2022-12-29T19:30:27;14.40;74.80
546;DHT22;259;53.304;9.816;2022-12-29T19:32:54;14.40;74.80
546;DHT22;259;53.304;9.816;2022-12-29T19:35:23;14.30;74.80